Wetterdaten: Woche 20.06.16 - 26.06.16 (KW25)
Datum Zeit Temp. A. Temp. A. max Feuchte A. Luftdruck Regen Wind Richtung Sonnenschein ET UV Solar Taupunkt Windben
20.06.2016 00:00 10,3 C 10,3 C 95 % 1022,7 hPa 0,2 mm 2,0 km/h (1 Bft) S 0,00 h 0,000 mm 0,0 UV-I 0 W/m 9,5 C 3,7 km/h (1 Bft)
20.06.2016 01:00 10,1 C 10,1 C 94 % 1022,6 hPa 0,2 mm 1,6 km/h (1 Bft) S-SW 0,00 h 0,000 mm 0,0 UV-I 0 W/m 9,2 C 3,2 km/h (1 Bft)
20.06.2016 02:00 10,1 C 10,1 C 95 % 1022,4 hPa 1,6 mm 1,8 km/h (1 Bft) W-SW 0,00 h 0,000 mm 0,0 UV-I 0 W/m 9,4 C 3,4 km/h (1 Bft)
20.06.2016 03:00 10,1 C 10,2 C 96 % 1022,3 hPa 0,2 mm 1,4 km/h (1 Bft) S-SW 0,00 h 0,000 mm 0,0 UV-I 0 W/m 9,5 C 3,1 km/h (1 Bft)
20.06.2016 04:00 10,1 C 10,1 C 95 % 1022,1 hPa 0,0 mm 1,9 km/h (1 Bft) S 0,00 h 0,000 mm 0,0 UV-I 0 W/m 9,4 C 3,9 km/h (1 Bft)
20.06.2016 05:00 10,1 C 10,1 C 95 % 1022,2 hPa 0,0 mm 0,8 km/h (0 Bft) W-SW 0,00 h 0,000 mm 0,0 UV-I 7 W/m 9,3 C 2,3 km/h (1 Bft)
20.06.2016 06:00 10,2 C 10,2 C 96 % 1022,2 hPa 0,0 mm 0,8 km/h (0 Bft) W-SW 0,00 h 0,000 mm 0,0 UV-I 28 W/m 9,5 C 1,9 km/h (1 Bft)
20.06.2016 07:00 10,9 C 10,9 C 95 % 1022,4 hPa 0,0 mm 2,3 km/h (1 Bft) W-SW 0,00 h 0,025 mm 0,7 UV-I 111 W/m 10,1 C 3,9 km/h (1 Bft)
20.06.2016 08:00 12,0 C 12,0 C 90 % 1022,5 hPa 0,0 mm 2,4 km/h (1 Bft) W 0,03 h 0,051 mm 1,7 UV-I 264 W/m 10,4 C 4,1 km/h (1 Bft)
20.06.2016 09:00 13,0 C 13,0 C 84 % 1022,4 hPa 0,0 mm 2,8 km/h (1 Bft) W 0,33 h 0,127 mm 2,3 UV-I 412 W/m 10,4 C 4,4 km/h (1 Bft)
20.06.2016 10:00 13,3 C 13,4 C 80 % 1022,1 hPa 0,0 mm 2,3 km/h (1 Bft) W 0,18 h 0,203 mm 2,9 UV-I 347 W/m 9,9 C 3,7 km/h (1 Bft)
20.06.2016 11:00 14,1 C 14,1 C 75 % 1022,1 hPa 0,0 mm 3,8 km/h (1 Bft) O-NO 0,18 h 0,178 mm 3,5 UV-I 437 W/m 9,7 C 5,5 km/h (1 Bft)
20.06.2016 12:00 15,1 C 15,2 C 70 % 1021,6 hPa 0,0 mm 3,5 km/h (1 Bft) O-NO 0,22 h 0,229 mm 4,3 UV-I 481 W/m 9,7 C 5,4 km/h (1 Bft)
20.06.2016 13:00 15,9 C 15,9 C 66 % 1021,2 hPa 0,0 mm 3,4 km/h (1 Bft) O 0,60 h 0,279 mm 5,6 UV-I 625 W/m 9,6 C 5,1 km/h (1 Bft)
20.06.2016 14:00 16,7 C 16,7 C 62 % 1020,6 hPa 0,0 mm 4,0 km/h (1 Bft) O-NO 0,60 h 0,381 mm 5,6 UV-I 660 W/m 9,5 C 6,7 km/h (2 Bft)
20.06.2016 15:00 17,4 C 17,4 C 62 % 1020,0 hPa 0,0 mm 5,3 km/h (1 Bft) O-NO 0,80 h 0,381 mm 5,1 UV-I 728 W/m 10,0 C 8,3 km/h (2 Bft)
20.06.2016 16:00 17,8 C 17,9 C 60 % 1019,4 hPa 0,0 mm 4,8 km/h (1 Bft) O-NO 0,28 h 0,407 mm 3,0 UV-I 292 W/m 10,0 C 7,8 km/h (2 Bft)
20.06.2016 17:00 17,9 C 17,9 C 60 % 1018,8 hPa 0,0 mm 5,2 km/h (1 Bft) O-NO 0,00 h 0,177 mm 1,8 UV-I 64 W/m 10,0 C 8,6 km/h (2 Bft)
20.06.2016 18:00 17,6 C 17,7 C 61 % 1018,7 hPa 0,0 mm 2,3 km/h (1 Bft) N 0,00 h 0,077 mm 1,2 UV-I 128 W/m 10,1 C 3,9 km/h (1 Bft)
20.06.2016 19:00 17,1 C 17,1 C 65 % 1018,5 hPa 0,0 mm 1,9 km/h (1 Bft) O-NO 0,00 h 0,101 mm 0,8 UV-I 116 W/m 10,3 C 3,5 km/h (1 Bft)
20.06.2016 20:00 15,3 C 15,4 C 75 % 1018,4 hPa 0,0 mm 1,6 km/h (1 Bft) O 0,00 h 0,076 mm 0,0 UV-I 38 W/m 10,8 C 2,7 km/h (1 Bft)
20.06.2016 21:00 13,0 C 13,0 C 85 % 1018,5 hPa 0,0 mm 0,7 km/h (0 Bft) S-SO 0,00 h 0,026 mm 0,0 UV-I 6 W/m 10,5 C 1,5 km/h (1 Bft)
20.06.2016 22:00 12,6 C 12,6 C 87 % 1018,5 hPa 0,0 mm 0,1 km/h (0 Bft) N 0,00 h 0,000 mm 0,0 UV-I 0 W/m 10,5 C 0,7 km/h (0 Bft)
20.06.2016 23:00 12,7 C 12,7 C 87 % 1018,8 hPa 0,0 mm 1,1 km/h (0 Bft) S 0,00 h 0,000 mm 0,0 UV-I 0 W/m 10,5 C 2,1 km/h (1 Bft)
21.06.2016 00:00 12,8 C 12,8 C 86 % 1020,1 hPa 0,0 mm 3,4 km/h (1 Bft) S-SO 0,00 h 0,000 mm 0,0 UV-I 0 W/m 10,5 C 5,4 km/h (1 Bft)
21.06.2016 01:00 12,9 C 12,9 C 86 % 1019,9 hPa 0,0 mm 1,4 km/h (1 Bft) SO 0,00 h 0,025 mm 0,0 UV-I 0 W/m 10,6 C 2,7 km/h (1 Bft)
21.06.2016 02:00 12,6 C 12,6 C 87 % 1019,9 hPa 0,0 mm 0,6 km/h (0 Bft) SO 0,00 h 0,000 mm 0,0 UV-I 0 W/m 10,6 C 1,5 km/h (1 Bft)
21.06.2016 03:00 12,6 C 12,7 C 88 % 1019,9 hPa 0,0 mm 1,9 km/h (1 Bft) S 0,00 h 0,000 mm 0,0 UV-I 0 W/m 10,7 C 3,5 km/h (1 Bft)
21.06.2016 04:00 12,8 C 12,8 C 87 % 1019,9 hPa 0,0 mm 2,6 km/h (1 Bft) S 0,00 h 0,000 mm 0,0 UV-I 0 W/m 10,7 C 4,7 km/h (1 Bft)
21.06.2016 05:00 12,6 C 12,6 C 90 % 1019,9 hPa 0,0 mm 1,1 km/h (1 Bft) S 0,00 h 0,000 mm 0,0 UV-I 16 W/m 10,9 C 2,4 km/h (1 Bft)
21.06.2016 06:00 13,0 C 13,0 C 89 % 1020,3 hPa 0,0 mm 0,8 km/h (0 Bft) S-SW 0,00 h 0,000 mm 0,0 UV-I 43 W/m 11,3 C 1,9 km/h (1 Bft)
21.06.2016 07:00 13,6 C 13,6 C 89 % 1020,5 hPa 0,0 mm 1,5 km/h (1 Bft) W 0,00 h 0,026 mm 0,6 UV-I 89 W/m 11,8 C 3,0 km/h (1 Bft)
21.06.2016 08:00 13,8 C 13,8 C 89 % 1020,9 hPa 0,0 mm 4,6 km/h (1 Bft) W-NW 0,00 h 0,051 mm 0,8 UV-I 125 W/m 12,0 C 7,3 km/h (2 Bft)
21.06.2016 09:00 13,9 C 13,9 C 89 % 1021,2 hPa 0,0 mm 4,2 km/h (1 Bft) W-NW 0,00 h 0,076 mm 1,6 UV-I 206 W/m 12,0 C 7,0 km/h (2 Bft)
21.06.2016 10:00 15,6 C 15,6 C 84 % 1021,1 hPa 0,0 mm 3,3 km/h (1 Bft) NW 0,20 h 0,101 mm 3,8 UV-I 462 W/m 12,9 C 5,2 km/h (1 Bft)
21.06.2016 11:00 17,4 C 17,4 C 76 % 1021,1 hPa 0,0 mm 3,7 km/h (1 Bft) NW 0,97 h 0,254 mm 5,5 UV-I 691 W/m 13,2 C 6,2 km/h (2 Bft)
21.06.2016 12:00 18,0 C 18,1 C 74 % 1021,6 hPa 0,0 mm 4,4 km/h (1 Bft) W 0,17 h 0,381 mm 3,8 UV-I 406 W/m 13,4 C 7,3 km/h (2 Bft)
21.06.2016 13:00 18,9 C 18,9 C 72 % 1021,7 hPa 0,0 mm 3,5 km/h (1 Bft) NW 0,38 h 0,229 mm 4,8 UV-I 503 W/m 13,6 C 5,7 km/h (1 Bft)
21.06.2016 14:00 19,4 C 19,4 C 71 % 1021,7 hPa 0,0 mm 4,4 km/h (1 Bft) NW 0,12 h 0,305 mm 3,7 UV-I 407 W/m 13,9 C 6,9 km/h (2 Bft)
21.06.2016 15:00 19,1 C 19,1 C 71 % 1021,8 hPa 0,0 mm 2,9 km/h (1 Bft) N-NW 0,00 h 0,254 mm 2,4 UV-I 255 W/m 13,8 C 4,4 km/h (1 Bft)
21.06.2016 16:00 19,1 C 19,1 C 72 % 1021,9 hPa 0,0 mm 2,8 km/h (1 Bft) O-NO 0,00 h 0,152 mm 1,5 UV-I 166 W/m 14,0 C 4,7 km/h (1 Bft)
21.06.2016 17:00 18,8 C 18,8 C 75 % 1021,8 hPa 0,0 mm 2,4 km/h (1 Bft) O-SO 0,00 h 0,102 mm 1,1 UV-I 125 W/m 14,3 C 4,0 km/h (1 Bft)
21.06.2016 18:00 17,0 C 17,1 C 87 % 1022,0 hPa 1,4 mm 1,4 km/h (1 Bft) NW 0,00 h 0,076 mm 0,0 UV-I 20 W/m 14,7 C 2,7 km/h (1 Bft)
21.06.2016 19:00 15,8 C 15,8 C 94 % 1022,3 hPa 0,2 mm 1,1 km/h (1 Bft) SO 0,00 h 0,025 mm 0,0 UV-I 20 W/m 14,9 C 2,1 km/h (1 Bft)
21.06.2016 20:00 15,6 C 15,6 C 95 % 1022,4 hPa 0,0 mm 0,9 km/h (0 Bft) S 0,00 h 0,000 mm 0,0 UV-I 15 W/m 14,8 C 1,9 km/h (1 Bft)
21.06.2016 21:00 15,3 C 15,3 C 95 % 1022,7 hPa 0,0 mm 1,1 km/h (0 Bft) S-SW 0,00 h 0,000 mm 0,0 UV-I 9 W/m 14,5 C 2,2 km/h (1 Bft)
21.06.2016 22:00 15,2 C 15,2 C 96 % 1023,0 hPa 0,0 mm 0,6 km/h (0 Bft) SO 0,00 h 0,000 mm 0,0 UV-I 0 W/m 14,6 C 1,3 km/h (1 Bft)
21.06.2016 23:00 15,2 C 15,2 C 96 % 1023,1 hPa 0,2 mm 0,5 km/h (0 Bft) O-NO 0,00 h 0,000 mm 0,0 UV-I 0 W/m 14,6 C 1,0 km/h (0 Bft)
22.06.2016 00:00 15,1 C 15,1 C 96 % 1023,4 hPa 0,0 mm 0,6 km/h (0 Bft) O-NO 0,00 h 0,000 mm 0,0 UV-I 0 W/m 14,5 C 1,3 km/h (1 Bft)
22.06.2016 01:00 14,9 C 14,9 C 96 % 1023,5 hPa 0,0 mm 0,3 km/h (0 Bft) O-NO 0,00 h 0,000 mm 0,0 UV-I 0 W/m 14,3 C 0,7 km/h (0 Bft)
22.06.2016 02:00 14,8 C 14,8 C 96 % 1023,5 hPa 0,0 mm 0,3 km/h (0 Bft) O-NO 0,00 h 0,000 mm 0,0 UV-I 0 W/m 14,2 C 0,7 km/h (0 Bft)
22.06.2016 03:00 14,8 C 14,8 C 96 % 1023,3 hPa 0,0 mm 0,3 km/h (0 Bft) O-NO 0,00 h 0,000 mm 0,0 UV-I 0 W/m 14,3 C 0,7 km/h (0 Bft)
22.06.2016 04:00 14,7 C 14,7 C 97 % 1023,3 hPa 0,0 mm 0,1 km/h (0 Bft) N 0,00 h 0,000 mm 0,0 UV-I 0 W/m 14,2 C 0,3 km/h (0 Bft)
22.06.2016 05:00 14,7 C 14,8 C 97 % 1023,6 hPa 0,0 mm 0,2 km/h (0 Bft) O-NO 0,00 h 0,000 mm 0,0 UV-I 8 W/m 14,3 C 0,6 km/h (0 Bft)
22.06.2016 06:00 15,0 C 15,0 C 97 % 1023,8 hPa 0,0 mm 0,0 km/h (0 Bft) N 0,00 h 0,000 mm 0,0 UV-I 31 W/m 14,5 C 0,2 km/h (0 Bft)
22.06.2016 07:00 16,3 C 16,3 C 94 % 1023,9 hPa 0,0 mm 0,4 km/h (0 Bft) NO 0,00 h 0,025 mm 0,9 UV-I 167 W/m 15,3 C 1,1 km/h (0 Bft)
22.06.2016 08:00 18,8 C 18,9 C 85 % 1023,7 hPa 0,0 mm 2,1 km/h (1 Bft) NO 0,00 h 0,102 mm 2,3 UV-I 404 W/m 16,2 C 3,4 km/h (1 Bft)
22.06.2016 09:00 20,2 C 20,2 C 75 % 1023,4 hPa 0,0 mm 2,8 km/h (1 Bft) NO 0,67 h 0,229 mm 3,6 UV-I 545 W/m 15,5 C 4,6 km/h (1 Bft)
22.06.2016 10:00 21,4 C 21,4 C 69 % 1023,1 hPa 0,0 mm 3,3 km/h (1 Bft) O-NO 1,00 h 0,304 mm 5,5 UV-I 752 W/m 15,5 C 5,5 km/h (1 Bft)
22.06.2016 11:00 22,6 C 22,6 C 68 % 1022,9 hPa 0,0 mm 3,1 km/h (1 Bft) N-NO 0,93 h 0,458 mm 6,6 UV-I 825 W/m 16,3 C 4,9 km/h (1 Bft)
22.06.2016 12:00 23,7 C 23,7 C 64 % 1022,6 hPa 0,0 mm 4,6 km/h (1 Bft) N 1,00 h 0,508 mm 7,6 UV-I 912 W/m 16,5 C 7,2 km/h (2 Bft)
22.06.2016 13:00 24,5 C 24,5 C 63 % 1022,4 hPa 0,0 mm 4,7 km/h (1 Bft) NO 1,00 h 0,584 mm 7,8 UV-I 922 W/m 17,0 C 7,7 km/h (2 Bft)
22.06.2016 14:00 25,2 C 25,2 C 61 % 1022,1 hPa 0,0 mm 6,0 km/h (2 Bft) NO 0,87 h 0,584 mm 6,8 UV-I 823 W/m 17,0 C 9,1 km/h (2 Bft)
22.06.2016 15:00 25,6 C 25,6 C 61 % 1021,8 hPa 0,0 mm 5,2 km/h (1 Bft) O-NO 1,00 h 0,559 mm 6,2 UV-I 826 W/m 17,4 C 8,4 km/h (2 Bft)
22.06.2016 16:00 25,8 C 25,8 C 59 % 1021,6 hPa 0,0 mm 5,0 km/h (1 Bft) N 0,30 h 0,559 mm 3,0 UV-I 280 W/m 17,2 C 8,3 km/h (2 Bft)
22.06.2016 17:00 25,6 C 25,6 C 58 % 1021,3 hPa 0,0 mm 5,4 km/h (1 Bft) NO 0,00 h 0,228 mm 1,8 UV-I 52 W/m 16,8 C 8,9 km/h (2 Bft)
22.06.2016 18:00 25,5 C 25,5 C 58 % 1021,0 hPa 0,0 mm 5,0 km/h (1 Bft) O-NO 0,00 h 0,076 mm 1,4 UV-I 132 W/m 16,7 C 7,8 km/h (2 Bft)
22.06.2016 19:00 25,0 C 25,0 C 59 % 1021,1 hPa 0,0 mm 5,1 km/h (1 Bft) O-NO 0,00 h 0,127 mm 0,8 UV-I 199 W/m 16,5 C 8,5 km/h (2 Bft)
22.06.2016 20:00 23,4 C 23,4 C 67 % 1021,2 hPa 0,0 mm 2,1 km/h (1 Bft) O-NO 0,00 h 0,153 mm 0,5 UV-I 47 W/m 16,9 C 3,7 km/h (1 Bft)
22.06.2016 21:00 21,0 C 21,1 C 75 % 1021,4 hPa 0,0 mm 2,1 km/h (1 Bft) S-SO 0,00 h 0,051 mm 0,0 UV-I 7 W/m 16,4 C 3,6 km/h (1 Bft)
22.06.2016 22:00 18,2 C 18,2 C 86 % 1021,7 hPa 0,0 mm 0,0 km/h (0 Bft) N 0,00 h 0,025 mm 0,0 UV-I 0 W/m 15,8 C 0,1 km/h (0 Bft)
22.06.2016 23:00 16,5 C 16,5 C 92 % 1021,7 hPa 0,0 mm 0,0 km/h (0 Bft) N 0,00 h 0,000 mm 0,0 UV-I 0 W/m 15,1 C 0,0 km/h (0 Bft)
23.06.2016 00:00 15,8 C 15,8 C 92 % 1021,7 hPa 0,0 mm 0,4 km/h (0 Bft) S-SO 0,00 h 0,000 mm 0,0 UV-I 0 W/m 14,6 C 1,0 km/h (0 Bft)
23.06.2016 01:00 15,3 C 15,3 C 93 % 1021,5 hPa 0,0 mm 0,4 km/h (0 Bft) S-SO 0,00 h 0,000 mm 0,0 UV-I 0 W/m 14,1 C 1,0 km/h (0 Bft)
23.06.2016 02:00 14,2 C 14,2 C 94 % 1021,3 hPa 0,0 mm 0,3 km/h (0 Bft) S-SO 0,00 h 0,000 mm 0,0 UV-I 0 W/m 13,3 C 0,9 km/h (0 Bft)
23.06.2016 03:00 13,2 C 13,2 C 96 % 1021,0 hPa 0,0 mm 0,2 km/h (0 Bft) W-SW 0,00 h 0,000 mm 0,0 UV-I 0 W/m 12,5 C 0,7 km/h (0 Bft)
23.06.2016 04:00 12,6 C 12,6 C 96 % 1020,5 hPa 0,0 mm 0,1 km/h (0 Bft) W-SW 0,00 h 0,000 mm 0,0 UV-I 0 W/m 12,0 C 0,3 km/h (0 Bft)
23.06.2016 05:00 11,9 C 11,9 C 97 % 1020,1 hPa 0,0 mm 0,4 km/h (0 Bft) S-SO 0,00 h 0,000 mm 0,0 UV-I 12 W/m 11,4 C 1,1 km/h (0 Bft)
23.06.2016 06:00 12,9 C 12,9 C 96 % 1020,1 hPa 0,0 mm 0,3 km/h (0 Bft) S-SO 0,00 h 0,000 mm 0,6 UV-I 95 W/m 12,2 C 0,9 km/h (0 Bft)
23.06.2016 07:00 16,1 C 16,1 C 90 % 1020,0 hPa 0,0 mm 0,3 km/h (0 Bft) S-SO 0,00 h 0,051 mm 1,3 UV-I 283 W/m 14,4 C 1,0 km/h (0 Bft)
23.06.2016 08:00 19,1 C 19,1 C 81 % 1019,9 hPa 0,0 mm 0,9 km/h (0 Bft) S-SO 0,18 h 0,152 mm 2,6 UV-I 453 W/m 15,6 C 1,9 km/h (1 Bft)
23.06.2016 09:00 22,1 C 22,1 C 70 % 1019,9 hPa 0,0 mm 2,0 km/h (1 Bft) NO 1,00 h 0,254 mm 4,1 UV-I 620 W/m 16,3 C 3,5 km/h (1 Bft)
23.06.2016 10:00 24,1 C 24,1 C 62 % 1019,9 hPa 0,0 mm 2,2 km/h (1 Bft) O 1,00 h 0,381 mm 5,6 UV-I 763 W/m 16,4 C 3,7 km/h (1 Bft)
23.06.2016 11:00 25,9 C 25,9 C 56 % 1019,8 hPa 0,0 mm 3,8 km/h (1 Bft) NO 1,00 h 0,483 mm 6,9 UV-I 861 W/m 16,4 C 6,2 km/h (2 Bft)
23.06.2016 12:00 27,1 C 27,1 C 49 % 1019,7 hPa 0,0 mm 4,1 km/h (1 Bft) O-NO 1,00 h 0,559 mm 7,7 UV-I 919 W/m 15,3 C 6,4 km/h (2 Bft)
23.06.2016 13:00 28,1 C 28,2 C 43 % 1019,4 hPa 0,0 mm 4,3 km/h (1 Bft) NO 1,00 h 0,635 mm 7,9 UV-I 929 W/m 14,3 C 7,4 km/h (2 Bft)
23.06.2016 14:00 29,0 C 29,0 C 40 % 1019,0 hPa 0,0 mm 4,9 km/h (1 Bft) N 1,00 h 0,635 mm 7,4 UV-I 893 W/m 13,8 C 7,5 km/h (2 Bft)
23.06.2016 15:00 29,2 C 29,2 C 38 % 1018,8 hPa 0,0 mm 5,5 km/h (1 Bft) N 0,90 h 0,635 mm 6,2 UV-I 803 W/m 13,4 C 8,4 km/h (2 Bft)
23.06.2016 16:00 29,2 C 29,2 C 36 % 1018,4 hPa 0,0 mm 5,0 km/h (1 Bft) NO 0,35 h 0,584 mm 4,9 UV-I 275 W/m 12,6 C 7,9 km/h (2 Bft)
23.06.2016 17:00 28,8 C 28,8 C 38 % 1017,8 hPa 0,0 mm 4,6 km/h (1 Bft) NO 0,00 h 0,228 mm 1,7 UV-I 38 W/m 13,0 C 7,2 km/h (2 Bft)
23.06.2016 18:00 28,5 C 28,5 C 39 % 1017,2 hPa 0,0 mm 4,0 km/h (1 Bft) NO 0,00 h 0,077 mm 1,4 UV-I 135 W/m 13,3 C 6,6 km/h (2 Bft)
23.06.2016 19:00 27,4 C 27,4 C 46 % 1017,0 hPa 0,0 mm 2,4 km/h (1 Bft) O 0,00 h 0,152 mm 0,9 UV-I 205 W/m 14,6 C 4,4 km/h (1 Bft)
23.06.2016 20:00 25,1 C 25,2 C 53 % 1016,9 hPa 0,0 mm 1,2 km/h (1 Bft) SO 0,00 h 0,152 mm 0,5 UV-I 48 W/m 14,8 C 2,7 km/h (1 Bft)
23.06.2016 21:00 21,4 C 21,5 C 65 % 1017,2 hPa 0,0 mm 0,2 km/h (0 Bft) S-SO 0,00 h 0,051 mm 0,0 UV-I 7 W/m 14,6 C 0,8 km/h (0 Bft)
23.06.2016 22:00 18,6 C 18,6 C 79 % 1017,3 hPa 0,0 mm 0,1 km/h (0 Bft) S-SO 0,00 h 0,000 mm 0,0 UV-I 0 W/m 14,8 C 0,2 km/h (0 Bft)
23.06.2016 23:00 17,3 C 17,4 C 80 % 1017,1 hPa 0,0 mm 0,1 km/h (0 Bft) N 0,00 h 0,026 mm 0,0 UV-I 0 W/m 13,9 C 0,7 km/h (0 Bft)
24.06.2016 00:00 15,9 C 15,9 C 84 % 1016,9 hPa 0,0 mm 0,1 km/h (0 Bft) S-SO 0,00 h 0,000 mm 0,0 UV-I 0 W/m 13,2 C 0,5 km/h (0 Bft)
24.06.2016 01:00 15,2 C 15,2 C 86 % 1016,4 hPa 0,0 mm 0,1 km/h (0 Bft) S-SO 0,00 h 0,025 mm 0,0 UV-I 0 W/m 12,8 C 0,6 km/h (0 Bft)
24.06.2016 02:00 15,0 C 15,0 C 85 % 1016,3 hPa 0,0 mm 0,9 km/h (0 Bft) S-SO 0,00 h 0,000 mm 0,0 UV-I 0 W/m 12,5 C 1,7 km/h (1 Bft)
24.06.2016 03:00 14,4 C 14,4 C 86 % 1016,1 hPa 0,0 mm 0,3 km/h (0 Bft) S-SO 0,00 h 0,026 mm 0,0 UV-I 0 W/m 12,1 C 0,8 km/h (0 Bft)
24.06.2016 04:00 14,1 C 14,1 C 87 % 1015,9 hPa 0,0 mm 0,5 km/h (0 Bft) S-SO 0,00 h 0,000 mm 0,0 UV-I 0 W/m 12,0 C 1,3 km/h (1 Bft)
24.06.2016 05:00 14,1 C 14,2 C 86 % 1016,2 hPa 0,0 mm 0,9 km/h (0 Bft) S-SO 0,00 h 0,000 mm 0,0 UV-I 13 W/m 11,8 C 1,9 km/h (1 Bft)
24.06.2016 06:00 15,8 C 15,8 C 82 % 1016,5 hPa 0,0 mm 0,0 km/h (0 Bft) N 0,00 h 0,000 mm 0,6 UV-I 88 W/m 12,8 C 0,0 km/h (0 Bft)
24.06.2016 07:00 18,9 C 18,9 C 79 % 1016,4 hPa 0,0 mm 0,0 km/h (0 Bft) N 0,00 h 0,051 mm 1,2 UV-I 257 W/m 15,1 C 0,0 km/h (0 Bft)
24.06.2016 08:00 23,3 C 23,3 C 68 % 1016,3 hPa 0,0 mm 3,4 km/h (1 Bft) W 0,03 h 0,152 mm 2,5 UV-I 433 W/m 16,8 C 6,1 km/h (2 Bft)
24.06.2016 09:00 26,0 C 26,1 C 58 % 1016,4 hPa 0,0 mm 7,9 km/h (2 Bft) W 1,00 h 0,279 mm 4,0 UV-I 594 W/m 17,1 C 12,4 km/h (3 Bft)
24.06.2016 10:00 27,2 C 27,2 C 53 % 1016,4 hPa 0,0 mm 6,6 km/h (2 Bft) W-NW 1,00 h 0,432 mm 5,5 UV-I 732 W/m 16,6 C 11,4 km/h (2 Bft)
24.06.2016 11:00 27,9 C 27,9 C 48 % 1015,9 hPa 0,0 mm 7,8 km/h (2 Bft) W 1,00 h 0,534 mm 6,9 UV-I 839 W/m 15,7 C 12,2 km/h (2 Bft)
24.06.2016 12:00 28,6 C 28,6 C 43 % 1015,4 hPa 0,0 mm 6,5 km/h (2 Bft) W-NW 1,00 h 0,609 mm 7,8 UV-I 901 W/m 14,6 C 10,4 km/h (2 Bft)
24.06.2016 13:00 28,9 C 28,9 C 46 % 1015,0 hPa 0,0 mm 7,9 km/h (2 Bft) W 0,92 h 0,661 mm 7,7 UV-I 839 W/m 15,9 C 12,2 km/h (2 Bft)
24.06.2016 14:00 29,2 C 29,2 C 44 % 1014,6 hPa 0,0 mm 6,8 km/h (2 Bft) W-NW 1,00 h 0,635 mm 7,1 UV-I 879 W/m 15,6 C 11,0 km/h (2 Bft)
24.06.2016 15:00 29,2 C 29,2 C 47 % 1014,1 hPa 0,0 mm 5,7 km/h (1 Bft) W-NW 1,00 h 0,609 mm 6,0 UV-I 793 W/m 16,6 C 9,2 km/h (2 Bft)
24.06.2016 16:00 29,2 C 29,2 C 45 % 1013,5 hPa 0,0 mm 5,4 km/h (1 Bft) W-NW 0,33 h 0,559 mm 3,3 UV-I 277 W/m 15,8 C 8,5 km/h (2 Bft)
24.06.2016 17:00 28,8 C 28,9 C 46 % 1012,8 hPa 0,0 mm 5,5 km/h (1 Bft) N-NO 0,00 h 0,229 mm 1,9 UV-I 72 W/m 16,1 C 9,0 km/h (2 Bft)
24.06.2016 18:00 28,2 C 28,3 C 48 % 1012,3 hPa 0,0 mm 5,5 km/h (1 Bft) O-NO 0,00 h 0,101 mm 1,4 UV-I 101 W/m 16,3 C 9,0 km/h (2 Bft)
24.06.2016 19:00 27,1 C 27,2 C 50 % 1012,3 hPa 0,0 mm 2,6 km/h (1 Bft) N 0,00 h 0,127 mm 0,9 UV-I 111 W/m 15,8 C 4,3 km/h (1 Bft)
24.06.2016 20:00 23,3 C 23,4 C 63 % 1012,5 hPa 0,0 mm 1,3 km/h (1 Bft) S-SO 0,00 h 0,102 mm 0,0 UV-I 13 W/m 15,9 C 2,3 km/h (1 Bft)
24.06.2016 21:00 21,9 C 21,9 C 68 % 1012,8 hPa 0,0 mm 4,3 km/h (1 Bft) S-SO 0,00 h 0,025 mm 0,0 UV-I 5 W/m 15,7 C 7,2 km/h (2 Bft)
24.06.2016 22:00 21,5 C 21,5 C 58 % 1013,1 hPa 0,0 mm 6,1 km/h (2 Bft) W 0,00 h 0,026 mm 0,0 UV-I 0 W/m 12,8 C 10,4 km/h (2 Bft)
24.06.2016 23:00 21,0 C 21,1 C 61 % 1013,5 hPa 0,0 mm 3,3 km/h (1 Bft) W-SW 0,00 h 0,076 mm 0,0 UV-I 0 W/m 13,2 C 6,2 km/h (2 Bft)
25.06.2016 00:00 18,7 C 18,8 C 80 % 1014,6 hPa 2,0 mm 6,4 km/h (2 Bft) W 0,00 h 0,000 mm 0,0 UV-I 0 W/m 15,1 C 11,1 km/h (2 Bft)
25.06.2016 01:00 16,7 C 16,7 C 91 % 1012,7 hPa 2,8 mm 4,1 km/h (1 Bft) W-SW 0,00 h 0,025 mm 0,0 UV-I 0 W/m 15,3 C 6,6 km/h (2 Bft)
25.06.2016 02:00 16,0 C 16,0 C 93 % 1011,7 hPa 0,0 mm 1,5 km/h (1 Bft) S 0,00 h 0,000 mm 0,0 UV-I 0 W/m 14,9 C 3,0 km/h (1 Bft)
25.06.2016 03:00 15,0 C 15,0 C 95 % 1010,5 hPa 0,0 mm 1,5 km/h (1 Bft) W-NW 0,00 h 0,000 mm 0,0 UV-I 0 W/m 14,2 C 2,8 km/h (1 Bft)
25.06.2016 04:00 14,6 C 14,6 C 96 % 1010,2 hPa 0,0 mm 1,8 km/h (1 Bft) S 0,00 h 0,000 mm 0,0 UV-I 0 W/m 13,9 C 2,9 km/h (1 Bft)
25.06.2016 05:00 14,5 C 14,6 C 95 % 1010,2 hPa 0,0 mm 1,2 km/h (1 Bft) S 0,00 h 0,000 mm 0,0 UV-I 18 W/m 13,8 C 2,3 km/h (1 Bft)
25.06.2016 06:00 15,9 C 15,9 C 93 % 1010,8 hPa 0,0 mm 2,3 km/h (1 Bft) W-SW 0,00 h 0,000 mm 0,6 UV-I 86 W/m 14,8 C 4,3 km/h (1 Bft)
25.06.2016 07:00 17,8 C 17,8 C 87 % 1011,4 hPa 0,0 mm 8,1 km/h (2 Bft) W 0,00 h 0,051 mm 1,1 UV-I 237 W/m 15,6 C 12,8 km/h (3 Bft)
25.06.2016 08:00 19,0 C 19,0 C 82 % 1011,6 hPa 0,0 mm 9,7 km/h (2 Bft) W 0,00 h 0,153 mm 2,3 UV-I 410 W/m 15,9 C 15,7 km/h (3 Bft)
25.06.2016 09:00 20,6 C 20,6 C 74 % 1011,3 hPa 0,0 mm 6,8 km/h (2 Bft) W-NW 0,78 h 0,254 mm 3,8 UV-I 564 W/m 15,9 C 11,5 km/h (2 Bft)
25.06.2016 10:00 21,9 C 21,9 C 66 % 1011,2 hPa 0,0 mm 6,1 km/h (2 Bft) W-NW 1,00 h 0,355 mm 5,3 UV-I 706 W/m 15,3 C 9,7 km/h (2 Bft)
25.06.2016 11:00 23,1 C 23,2 C 59 % 1011,0 hPa 0,0 mm 6,1 km/h (2 Bft) NW 1,00 h 0,457 mm 6,6 UV-I 808 W/m 14,6 C 9,3 km/h (2 Bft)
25.06.2016 12:00 23,7 C 23,8 C 58 % 1010,6 hPa 0,0 mm 5,1 km/h (1 Bft) W 1,00 h 0,534 mm 7,5 UV-I 869 W/m 14,8 C 8,4 km/h (2 Bft)
25.06.2016 13:00 24,4 C 24,4 C 57 % 1010,0 hPa 0,0 mm 4,5 km/h (1 Bft) NW 0,95 h 0,559 mm 7,6 UV-I 853 W/m 15,3 C 7,4 km/h (2 Bft)
25.06.2016 14:00 24,9 C 25,0 C 56 % 1008,9 hPa 0,0 mm 4,1 km/h (1 Bft) N 0,55 h 0,558 mm 5,5 UV-I 672 W/m 15,5 C 6,6 km/h (2 Bft)
25.06.2016 15:00 21,9 C 22,0 C 70 % 1009,3 hPa 0,4 mm 6,5 km/h (2 Bft) O-NO 0,00 h 0,432 mm 1,9 UV-I 61 W/m 16,0 C 10,9 km/h (2 Bft)
25.06.2016 16:00 16,1 C 16,1 C 90 % 1010,3 hPa 2,8 mm 6,4 km/h (2 Bft) W-SW 0,00 h 0,076 mm 0,0 UV-I 10 W/m 14,5 C 10,4 km/h (2 Bft)
25.06.2016 17:00 15,9 C 15,9 C 93 % 1011,0 hPa 0,0 mm 2,1 km/h (1 Bft) W-SW 0,00 h 0,026 mm 0,6 UV-I 48 W/m 14,7 C 3,7 km/h (1 Bft)
25.06.2016 18:00 16,9 C 16,9 C 89 % 1012,4 hPa 0,0 mm 8,8 km/h (2 Bft) W 0,00 h 0,025 mm 0,8 UV-I 107 W/m 15,0 C 14,8 km/h (3 Bft)
25.06.2016 19:00 16,6 C 16,6 C 85 % 1012,6 hPa 0,0 mm 13,7 km/h (3 Bft) W-SW 0,00 h 0,076 mm 0,7 UV-I 68 W/m 14,0 C 21,4 km/h (4 Bft)
25.06.2016 20:00 15,2 C 15,2 C 90 % 1013,5 hPa 0,2 mm 5,1 km/h (1 Bft) W-SW 0,00 h 0,077 mm 0,0 UV-I 27 W/m 13,5 C 9,0 km/h (2 Bft)
25.06.2016 21:00 15,2 C 15,2 C 90 % 1014,3 hPa 0,0 mm 3,1 km/h (1 Bft) SW 0,00 h 0,025 mm 0,0 UV-I 9 W/m 13,6 C 5,6 km/h (1 Bft)
25.06.2016 22:00 15,3 C 15,3 C 90 % 1015,3 hPa 0,0 mm 1,7 km/h (1 Bft) S 0,00 h 0,000 mm 0,0 UV-I 0 W/m 13,6 C 3,6 km/h (1 Bft)
25.06.2016 23:00 15,0 C 15,1 C 92 % 1015,8 hPa 0,0 mm 0,5 km/h (0 Bft) SW 0,00 h 0,000 mm 0,0 UV-I 0 W/m 13,7 C 1,3 km/h (1 Bft)
26.06.2016 00:00 15,1 C 15,1 C 92 % 1015,7 hPa 0,0 mm 0,7 km/h (0 Bft) W-SW 0,00 h 0,000 mm 0,0 UV-I 0 W/m 13,8 C 1,6 km/h (1 Bft)
26.06.2016 01:00 14,6 C 14,6 C 93 % 1015,7 hPa 0,0 mm 0,7 km/h (0 Bft) S-SO 0,00 h 0,000 mm 0,0 UV-I 0 W/m 13,5 C 1,6 km/h (1 Bft)
26.06.2016 02:00 14,1 C 14,2 C 93 % 1015,7 hPa 0,4 mm 1,1 km/h (0 Bft) S 0,00 h 0,000 mm 0,0 UV-I 0 W/m 13,1 C 2,1 km/h (1 Bft)
26.06.2016 03:00 13,8 C 13,8 C 95 % 1015,5 hPa 1,0 mm 0,7 km/h (0 Bft) SW 0,00 h 0,000 mm 0,0 UV-I 0 W/m 13,0 C 1,5 km/h (1 Bft)
26.06.2016 04:00 13,6 C 13,6 C 96 % 1015,6 hPa 1,8 mm 0,8 km/h (0 Bft) W 0,00 h 0,000 mm 0,0 UV-I 0 W/m 12,9 C 1,7 km/h (1 Bft)
26.06.2016 05:00 13,3 C 13,3 C 96 % 1015,9 hPa 0,4 mm 1,2 km/h (1 Bft) W 0,00 h 0,000 mm 0,0 UV-I 6 W/m 12,7 C 2,5 km/h (1 Bft)
26.06.2016 06:00 13,1 C 13,1 C 96 % 1016,3 hPa 1,0 mm 2,7 km/h (1 Bft) W 0,00 h 0,000 mm 0,0 UV-I 16 W/m 12,5 C 4,5 km/h (1 Bft)
26.06.2016 07:00 13,0 C 13,0 C 95 % 1016,5 hPa 0,0 mm 2,2 km/h (1 Bft) W 0,00 h 0,000 mm 0,0 UV-I 40 W/m 12,2 C 3,6 km/h (1 Bft)
26.06.2016 08:00 12,8 C 12,8 C 95 % 1016,7 hPa 0,8 mm 1,8 km/h (1 Bft) W-SW 0,00 h 0,025 mm 0,6 UV-I 61 W/m 12,0 C 3,3 km/h (1 Bft)
26.06.2016 09:00 13,1 C 13,1 C 95 % 1016,9 hPa 0,2 mm 2,4 km/h (1 Bft) W 0,00 h 0,026 mm 0,6 UV-I 71 W/m 12,4 C 4,1 km/h (1 Bft)
26.06.2016 10:00 13,0 C 13,1 C 96 % 1017,0 hPa 1,6 mm 2,2 km/h (1 Bft) W-NW 0,00 h 0,025 mm 0,6 UV-I 61 W/m 12,3 C 3,5 km/h (1 Bft)
26.06.2016 11:00 13,1 C 13,1 C 96 % 1017,3 hPa 1,6 mm 2,5 km/h (1 Bft) NW 0,00 h 0,026 mm 1,0 UV-I 80 W/m 12,5 C 4,0 km/h (1 Bft)
26.06.2016 12:00 13,3 C 13,3 C 95 % 1017,4 hPa 0,2 mm 3,7 km/h (1 Bft) N 0,00 h 0,050 mm 1,4 UV-I 144 W/m 12,5 C 5,9 km/h (2 Bft)
26.06.2016 13:00 12,9 C 12,9 C 95 % 1017,7 hPa 1,0 mm 4,4 km/h (1 Bft) N 0,00 h 0,077 mm 1,0 UV-I 105 W/m 12,1 C 7,1 km/h (2 Bft)
26.06.2016 14:00 12,3 C 12,4 C 94 % 1017,9 hPa 0,4 mm 2,3 km/h (1 Bft) O-SO 0,00 h 0,050 mm 0,8 UV-I 81 W/m 11,5 C 4,1 km/h (1 Bft)
26.06.2016 15:00 12,0 C 12,0 C 94 % 1018,2 hPa 0,4 mm 2,1 km/h (1 Bft) W-SW 0,00 h 0,051 mm 0,8 UV-I 81 W/m 11,1 C 3,4 km/h (1 Bft)
26.06.2016 16:00 12,1 C 12,2 C 92 % 1018,3 hPa 0,0 mm 3,0 km/h (1 Bft) S 0,00 h 0,051 mm 1,3 UV-I 154 W/m 10,9 C 4,9 km/h (1 Bft)
26.06.2016 17:00 12,4 C 12,4 C 94 % 1018,3 hPa 0,0 mm 1,6 km/h (1 Bft) S 0,00 h 0,076 mm 0,7 UV-I 90 W/m 11,4 C 3,2 km/h (1 Bft)
26.06.2016 18:00 12,4 C 12,4 C 94 % 1018,2 hPa 0,0 mm 1,5 km/h (1 Bft) S-SO 0,00 h 0,051 mm 0,6 UV-I 55 W/m 11,4 C 3,0 km/h (1 Bft)
26.06.2016 19:00 12,0 C 12,0 C 94 % 1018,3 hPa 0,0 mm 1,4 km/h (1 Bft) O-SO 0,00 h 0,025 mm 0,0 UV-I 25 W/m 11,1 C 2,6 km/h (1 Bft)
26.06.2016 20:00 11,6 C 11,6 C 95 % 1018,6 hPa 0,0 mm 2,2 km/h (1 Bft) O-NO 0,00 h 0,026 mm 0,0 UV-I 6 W/m 10,8 C 3,6 km/h (1 Bft)
26.06.2016 21:00 11,4 C 11,4 C 96 % 1018,9 hPa 0,4 mm 0,7 km/h (0 Bft) O-NO 0,00 h 0,000 mm 0,0 UV-I 0 W/m 10,8 C 1,5 km/h (1 Bft)
26.06.2016 22:00 11,2 C 11,2 C 96 % 1019,6 hPa 2,2 mm 0,9 km/h (0 Bft) W-SW 0,00 h 0,000 mm 0,0 UV-I 0 W/m 10,5 C 2,1 km/h (1 Bft)
26.06.2016 23:00 10,9 C 10,9 C 97 % 1020,0 hPa 2,2 mm 0,6 km/h (0 Bft) W 0,00 h 0,000 mm 0,0 UV-I 0 W/m 10,4 C 1,3 km/h (1 Bft)
Min-Datum _ 20.06.16 20.06.16 23.06.16 25.06.16 - 26.06.16 - - - - - 20.06.16 26.06.16
_ Min-Zeit 06:01 06:00 16:03 15:05 - 23:01 - - - - - 13:26 23:01
Minimum _ 9,9 C 10,0 C 32 % 1008,7 hPa - 0,0 km/h (0 Bft) - - - - - 7,3 C 0,0 km/h (0 Bft)
Max-Datum _ 24.06.16 24.06.16 26.06.16 22.06.16 25.06.16 25.06.16 - 23.06.16 24.06.16 20.06.16 20.06.16 22.06.16 25.06.16
_ Max-Zeit 14:17 14:17 23:01 07:01 16:02 19:25 - 15:17 13:00 13:39 13:53 13:04 15:46
Maximum _ 29,5 C 29,5 C 97 % 1024,0 hPa 2,8 mm 24,4 km/h
W-SW (4 Bft)
- 0,08 h 0,661 mm 8,8 UV-I 1144 W/m 18,7 C 46,7 km/h
O-NO (6 Bft)
Durchschnitt _ 17,7 C 17,7 C 79 % 1018,3 hPa #27,8 mm 2,8 km/h (1 Bft) W #31:50 h #23,902 mm 3,2 UV-I 215 W/m 13,4 C 4,7 km/h (1 Bft)